sensor_id;sensor_type;location;lat;lon;timestamp;temperature;humidity
45343;DHT22;31077;50.872;4.352;2023-03-31T00:02:19;24.50;45.10
45343;DHT22;31077;50.872;4.352;2023-03-31T00:04:47;24.50;45.00
45343;DHT22;31077;50.872;4.352;2023-03-31T00:07:24;24.50;45.00
45343;DHT22;31077;50.872;4.352;2023-03-31T00:09:50;24.50;45.00
45343;DHT22;31077;50.872;4.352;2023-03-31T00:12:21;24.50;45.00
45343;DHT22;31077;50.872;4.352;2023-03-31T00:14:47;24.50;45.00
45343;DHT22;31077;50.872;4.352;2023-03-31T00:17:13;24.50;45.10
45343;DHT22;31077;50.872;4.352;2023-03-31T00:19:39;24.50;45.10
45343;DHT22;31077;50.872;4.352;2023-03-31T00:22:07;24.50;45.10
45343;DHT22;31077;50.872;4.352;2023-03-31T00:24:34;24.50;45.10
45343;DHT22;31077;50.872;4.352;2023-03-31T00:27:01;24.50;45.10
45343;DHT22;31077;50.872;4.352;2023-03-31T00:29:27;24.50;45.10
45343;DHT22;31077;50.872;4.352;2023-03-31T00:31:54;24.60;45.20
45343;DHT22;31077;50.872;4.352;2023-03-31T00:34:20;24.50;45.10
45343;DHT22;31077;50.872;4.352;2023-03-31T00:36:46;24.50;45.10
45343;DHT22;31077;50.872;4.352;2023-03-31T00:39:14;24.50;45.00
45343;DHT22;31077;50.872;4.352;2023-03-31T00:41:41;24.50;45.00
45343;DHT22;31077;50.872;4.352;2023-03-31T00:44:16;24.50;45.00
45343;DHT22;31077;50.872;4.352;2023-03-31T00:46:55;24.50;45.00
45343;DHT22;31077;50.872;4.352;2023-03-31T00:52:20;24.50;45.10
45343;DHT22;31077;50.872;4.352;2023-03-31T00:54:52;24.60;45.10
45343;DHT22;31077;50.872;4.352;2023-03-31T00:57:20;24.50;45.10
45343;DHT22;31077;50.872;4.352;2023-03-31T00:59:49;24.50;45.10
45343;DHT22;31077;50.872;4.352;2023-03-31T01:02:17;24.50;45.20
45343;DHT22;31077;50.872;4.352;2023-03-31T01:04:58;24.50;45.20
45343;DHT22;31077;50.872;4.352;2023-03-31T01:09:52;23.30;44.60
45343;DHT22;31077;50.872;4.352;2023-03-31T01:12:22;24.50;45.80
45343;DHT22;31077;50.872;4.352;2023-03-31T01:14:49;24.50;45.30
45343;DHT22;31077;50.872;4.352;2023-03-31T01:17:18;24.50;45.30
45343;DHT22;31077;50.872;4.352;2023-03-31T01:20:08;24.50;45.40
45343;DHT22;31077;50.872;4.352;2023-03-31T01:31:22;24.50;45.30
45343;DHT22;31077;50.872;4.352;2023-03-31T01:42:16;24.50;45.30
45343;DHT22;31077;50.872;4.352;2023-03-31T01:48:06;24.60;45.30
45343;DHT22;31077;50.872;4.352;2023-03-31T01:50:47;24.50;45.30
45343;DHT22;31077;50.872;4.352;2023-03-31T01:53:39;24.50;45.20
45343;DHT22;31077;50.872;4.352;2023-03-31T01:56:17;24.50;45.30
45343;DHT22;31077;50.872;4.352;2023-03-31T01:59:13;24.50;45.20
45343;DHT22;31077;50.872;4.352;2023-03-31T02:04:13;24.50;45.20
45343;DHT22;31077;50.872;4.352;2023-03-31T02:06:44;24.50;45.20
45343;DHT22;31077;50.872;4.352;2023-03-31T02:09:15;24.50;45.20
45343;DHT22;31077;50.872;4.352;2023-03-31T02:11:42;24.50;45.20
45343;DHT22;31077;50.872;4.352;2023-03-31T02:14:11;24.50;45.10
45343;DHT22;31077;50.872;4.352;2023-03-31T02:16:41;24.50;45.10
45343;DHT22;31077;50.872;4.352;2023-03-31T02:19:13;24.50;45.10
45343;DHT22;31077;50.872;4.352;2023-03-31T02:21:44;24.50;45.10
45343;DHT22;31077;50.872;4.352;2023-03-31T02:24:14;24.50;45.10
45343;DHT22;31077;50.872;4.352;2023-03-31T02:27:14;23.30;44.40
45343;DHT22;31077;50.872;4.352;2023-03-31T02:29:42;24.50;45.00
45343;DHT22;31077;50.872;4.352;2023-03-31T02:32:12;24.50;45.00
45343;DHT22;31077;50.872;4.352;2023-03-31T02:34:39;24.50;45.00
45343;DHT22;31077;50.872;4.352;2023-03-31T02:37:06;24.50;44.90
45343;DHT22;31077;50.872;4.352;2023-03-31T02:39:35;24.50;44.90
45343;DHT22;31077;50.872;4.352;2023-03-31T02:42:07;24.50;44.90
45343;DHT22;31077;50.872;4.352;2023-03-31T02:44:34;24.50;44.90
45343;DHT22;31077;50.872;4.352;2023-03-31T02:47:11;24.50;44.90
45343;DHT22;31077;50.872;4.352;2023-03-31T02:49:40;24.50;44.90
45343;DHT22;31077;50.872;4.352;2023-03-31T03:08:38;24.50;44.90
45343;DHT22;31077;50.872;4.352;2023-03-31T03:14:16;24.50;44.90
45343;DHT22;31077;50.872;4.352;2023-03-31T03:16:47;24.40;44.80
45343;DHT22;31077;50.872;4.352;2023-03-31T03:19:22;24.40;44.90
45343;DHT22;31077;50.872;4.352;2023-03-31T03:21:48;24.40;44.80
45343;DHT22;31077;50.872;4.352;2023-03-31T03:24:15;24.40;44.80
45343;DHT22;31077;50.872;4.352;2023-03-31T03:26:42;24.40;44.80
45343;DHT22;31077;50.872;4.352;2023-03-31T03:29:10;24.40;44.80
45343;DHT22;31077;50.872;4.352;2023-03-31T03:31:38;24.40;44.80
45343;DHT22;31077;50.872;4.352;2023-03-31T03:34:04;24.40;44.70
45343;DHT22;31077;50.872;4.352;2023-03-31T03:36:31;24.40;44.80
45343;DHT22;31077;50.872;4.352;2023-03-31T03:38:57;24.40;44.80
45343;DHT22;31077;50.872;4.352;2023-03-31T03:41:23;24.40;44.70
45343;DHT22;31077;50.872;4.352;2023-03-31T03:43:49;24.40;44.80
45343;DHT22;31077;50.872;4.352;2023-03-31T03:46:14;24.40;44.80
45343;DHT22;31077;50.872;4.352;2023-03-31T03:48:40;24.40;44.80
45343;DHT22;31077;50.872;4.352;2023-03-31T03:51:06;24.40;44.80
45343;DHT22;31077;50.872;4.352;2023-03-31T03:53:32;24.40;44.80
45343;DHT22;31077;50.872;4.352;2023-03-31T03:55:57;24.40;44.70
45343;DHT22;31077;50.872;4.352;2023-03-31T03:58:24;24.40;44.60
45343;DHT22;31077;50.872;4.352;2023-03-31T04:00:50;24.40;44.60
45343;DHT22;31077;50.872;4.352;2023-03-31T04:03:16;26.00;45.50
45343;DHT22;31077;50.872;4.352;2023-03-31T04:05:42;24.40;44.50
45343;DHT22;31077;50.872;4.352;2023-03-31T04:08:07;24.40;44.30
45343;DHT22;31077;50.872;4.352;2023-03-31T04:10:34;24.40;44.30
45343;DHT22;31077;50.872;4.352;2023-03-31T04:13:00;24.40;44.20
45343;DHT22;31077;50.872;4.352;2023-03-31T04:15:26;24.40;44.20
45343;DHT22;31077;50.872;4.352;2023-03-31T04:17:51;24.40;44.10
45343;DHT22;31077;50.872;4.352;2023-03-31T04:20:20;24.40;44.10
45343;DHT22;31077;50.872;4.352;2023-03-31T04:22:46;24.40;44.00
45343;DHT22;31077;50.872;4.352;2023-03-31T04:25:16;24.40;44.00
45343;DHT22;31077;50.872;4.352;2023-03-31T04:27:50;24.40;44.00
45343;DHT22;31077;50.872;4.352;2023-03-31T04:30:28;24.40;43.90
45343;DHT22;31077;50.872;4.352;2023-03-31T04:32:58;24.40;43.90
45343;DHT22;31077;50.872;4.352;2023-03-31T04:35:27;24.40;43.90
45343;DHT22;31077;50.872;4.352;2023-03-31T04:38:07;24.40;43.90
45343;DHT22;31077;50.872;4.352;2023-03-31T04:40:33;24.40;43.90
45343;DHT22;31077;50.872;4.352;2023-03-31T04:43:00;24.40;43.90
45343;DHT22;31077;50.872;4.352;2023-03-31T04:45:25;24.40;43.90
45343;DHT22;31077;50.872;4.352;2023-03-31T04:47:51;24.40;44.00
45343;DHT22;31077;50.872;4.352;2023-03-31T04:50:17;24.40;44.00
45343;DHT22;31077;50.872;4.352;2023-03-31T04:52:43;24.30;44.00
45343;DHT22;31077;50.872;4.352;2023-03-31T04:55:09;24.40;44.00
45343;DHT22;31077;50.872;4.352;2023-03-31T04:57:35;24.40;44.10
45343;DHT22;31077;50.872;4.352;2023-03-31T05:00:02;24.40;44.20
45343;DHT22;31077;50.872;4.352;2023-03-31T05:02:31;24.40;44.20
45343;DHT22;31077;50.872;4.352;2023-03-31T05:04:57;24.40;44.20
45343;DHT22;31077;50.872;4.352;2023-03-31T05:07:23;24.30;44.20
45343;DHT22;31077;50.872;4.352;2023-03-31T05:09:49;24.30;44.20
45343;DHT22;31077;50.872;4.352;2023-03-31T05:12:14;24.40;44.30
45343;DHT22;31077;50.872;4.352;2023-03-31T05:14:40;24.30;44.30
45343;DHT22;31077;50.872;4.352;2023-03-31T05:17:06;24.30;44.40
45343;DHT22;31077;50.872;4.352;2023-03-31T05:19:32;24.40;44.40
45343;DHT22;31077;50.872;4.352;2023-03-31T05:21:58;24.40;44.40
45343;DHT22;31077;50.872;4.352;2023-03-31T05:24:24;24.40;44.40
45343;DHT22;31077;50.872;4.352;2023-03-31T05:26:49;24.30;44.40
45343;DHT22;31077;50.872;4.352;2023-03-31T05:29:18;24.30;44.50
45343;DHT22;31077;50.872;4.352;2023-03-31T05:31:45;24.30;44.40
45343;DHT22;31077;50.872;4.352;2023-03-31T05:34:11;24.30;44.50
45343;DHT22;31077;50.872;4.352;2023-03-31T05:36:37;24.30;44.60
45343;DHT22;31077;50.872;4.352;2023-03-31T05:39:04;24.40;44.60
45343;DHT22;31077;50.872;4.352;2023-03-31T05:41:30;24.30;44.60
45343;DHT22;31077;50.872;4.352;2023-03-31T05:43:57;24.40;44.70
45343;DHT22;31077;50.872;4.352;2023-03-31T05:46:23;24.30;44.60
45343;DHT22;31077;50.872;4.352;2023-03-31T05:48:49;24.30;44.60
45343;DHT22;31077;50.872;4.352;2023-03-31T05:51:15;24.30;44.60
45343;DHT22;31077;50.872;4.352;2023-03-31T05:53:41;24.30;44.60
45343;DHT22;31077;50.872;4.352;2023-03-31T05:56:06;24.30;44.60
45343;DHT22;31077;50.872;4.352;2023-03-31T05:58:36;24.30;44.60
45343;DHT22;31077;50.872;4.352;2023-03-31T06:01:21;24.30;44.60
45343;DHT22;31077;50.872;4.352;2023-03-31T06:03:48;24.30;44.60
45343;DHT22;31077;50.872;4.352;2023-03-31T06:06:15;24.30;44.60
45343;DHT22;31077;50.872;4.352;2023-03-31T06:08:42;24.30;44.60
45343;DHT22;31077;50.872;4.352;2023-03-31T06:11:10;24.30;44.60
45343;DHT22;31077;50.872;4.352;2023-03-31T06:13:37;24.30;44.60
45343;DHT22;31077;50.872;4.352;2023-03-31T06:16:04;24.30;44.60
45343;DHT22;31077;50.872;4.352;2023-03-31T06:18:32;24.30;44.60
45343;DHT22;31077;50.872;4.352;2023-03-31T06:20:58;24.30;44.60
45343;DHT22;31077;50.872;4.352;2023-03-31T06:23:24;24.30;44.60
45343;DHT22;31077;50.872;4.352;2023-03-31T06:25:51;24.30;44.60
45343;DHT22;31077;50.872;4.352;2023-03-31T06:28:17;24.30;44.50
45343;DHT22;31077;50.872;4.352;2023-03-31T06:30:43;24.30;44.50
45343;DHT22;31077;50.872;4.352;2023-03-31T06:33:09;24.30;44.50
45343;DHT22;31077;50.872;4.352;2023-03-31T06:35:39;24.30;44.50
45343;DHT22;31077;50.872;4.352;2023-03-31T06:38:06;24.30;44.50
45343;DHT22;31077;50.872;4.352;2023-03-31T06:40:34;24.30;44.50
45343;DHT22;31077;50.872;4.352;2023-03-31T06:42:59;24.20;44.40
45343;DHT22;31077;50.872;4.352;2023-03-31T06:45:25;24.30;44.40
45343;DHT22;31077;50.872;4.352;2023-03-31T06:47:51;24.30;44.40
45343;DHT22;31077;50.872;4.352;2023-03-31T06:50:16;24.30;44.40
45343;DHT22;31077;50.872;4.352;2023-03-31T06:52:42;24.30;44.40
45343;DHT22;31077;50.872;4.352;2023-03-31T06:55:09;24.30;44.40
45343;DHT22;31077;50.872;4.352;2023-03-31T06:57:37;24.30;44.40
45343;DHT22;31077;50.872;4.352;2023-03-31T07:00:04;24.30;44.30
45343;DHT22;31077;50.872;4.352;2023-03-31T07:02:30;24.30;44.30
45343;DHT22;31077;50.872;4.352;2023-03-31T07:04:56;24.30;44.30
45343;DHT22;31077;50.872;4.352;2023-03-31T07:07:21;24.30;44.20
45343;DHT22;31077;50.872;4.352;2023-03-31T07:09:47;24.30;44.20
45343;DHT22;31077;50.872;4.352;2023-03-31T07:12:13;24.30;44.20
45343;DHT22;31077;50.872;4.352;2023-03-31T07:14:39;24.30;44.20
45343;DHT22;31077;50.872;4.352;2023-03-31T07:17:06;24.30;44.20
45343;DHT22;31077;50.872;4.352;2023-03-31T07:19:31;24.30;44.10
45343;DHT22;31077;50.872;4.352;2023-03-31T07:21:57;24.30;44.10
45343;DHT22;31077;50.872;4.352;2023-03-31T07:24:24;24.30;44.10
45343;DHT22;31077;50.872;4.352;2023-03-31T07:26:51;24.30;44.10
45343;DHT22;31077;50.872;4.352;2023-03-31T07:29:17;24.30;44.10
45343;DHT22;31077;50.872;4.352;2023-03-31T07:31:46;24.30;44.00
45343;DHT22;31077;50.872;4.352;2023-03-31T07:34:12;24.30;44.00
45343;DHT22;31077;50.872;4.352;2023-03-31T07:36:37;24.30;44.00
45343;DHT22;31077;50.872;4.352;2023-03-31T07:39:05;24.30;43.90
45343;DHT22;31077;50.872;4.352;2023-03-31T07:41:30;24.30;43.80
45343;DHT22;31077;50.872;4.352;2023-03-31T07:43:56;24.30;43.90
45343;DHT22;31077;50.872;4.352;2023-03-31T07:46:24;24.30;43.90
45343;DHT22;31077;50.872;4.352;2023-03-31T07:48:52;24.30;43.80
45343;DHT22;31077;50.872;4.352;2023-03-31T07:51:20;24.30;43.90
45343;DHT22;31077;50.872;4.352;2023-03-31T07:53:46;24.30;43.80
45343;DHT22;31077;50.872;4.352;2023-03-31T07:56:14;24.30;43.80
45343;DHT22;31077;50.872;4.352;2023-03-31T07:58:42;24.30;43.80
45343;DHT22;31077;50.872;4.352;2023-03-31T08:01:15;24.30;43.80
45343;DHT22;31077;50.872;4.352;2023-03-31T08:03:42;24.30;43.80
45343;DHT22;31077;50.872;4.352;2023-03-31T08:06:08;24.30;43.80
45343;DHT22;31077;50.872;4.352;2023-03-31T08:08:34;24.30;43.80
45343;DHT22;31077;50.872;4.352;2023-03-31T08:11:03;24.30;44.30
45343;DHT22;31077;50.872;4.352;2023-03-31T08:13:29;24.30;43.80
45343;DHT22;31077;50.872;4.352;2023-03-31T08:15:55;24.30;43.70
45343;DHT22;31077;50.872;4.352;2023-03-31T08:18:20;24.30;43.70
45343;DHT22;31077;50.872;4.352;2023-03-31T08:20:46;24.30;43.70
45343;DHT22;31077;50.872;4.352;2023-03-31T08:23:14;24.30;43.70
45343;DHT22;31077;50.872;4.352;2023-03-31T08:25:40;24.30;43.70
45343;DHT22;31077;50.872;4.352;2023-03-31T08:28:06;24.30;43.70
45343;DHT22;31077;50.872;4.352;2023-03-31T08:30:36;24.30;43.60
45343;DHT22;31077;50.872;4.352;2023-03-31T08:33:02;24.30;43.60
45343;DHT22;31077;50.872;4.352;2023-03-31T08:35:28;24.30;43.60
45343;DHT22;31077;50.872;4.352;2023-03-31T08:37:54;24.30;43.60
45343;DHT22;31077;50.872;4.352;2023-03-31T08:40:23;24.30;43.60
45343;DHT22;31077;50.872;4.352;2023-03-31T08:42:54;24.30;43.60
45343;DHT22;31077;50.872;4.352;2023-03-31T08:45:30;24.30;43.60
45343;DHT22;31077;50.872;4.352;2023-03-31T08:48:06;24.30;43.50
45343;DHT22;31077;50.872;4.352;2023-03-31T08:50:39;24.30;43.50
45343;DHT22;31077;50.872;4.352;2023-03-31T08:53:36;24.30;43.50
45343;DHT22;31077;50.872;4.352;2023-03-31T08:56:06;24.30;43.60
45343;DHT22;31077;50.872;4.352;2023-03-31T08:58:42;24.30;43.60
45343;DHT22;31077;50.872;4.352;2023-03-31T09:15:52;24.30;43.70
45343;DHT22;31077;50.872;4.352;2023-03-31T09:18:28;24.30;43.80
45343;DHT22;31077;50.872;4.352;2023-03-31T09:21:26;24.30;43.80
45343;DHT22;31077;50.872;4.352;2023-03-31T09:24:14;24.30;43.90
45343;DHT22;31077;50.872;4.352;2023-03-31T09:29:51;24.30;43.90
45343;DHT22;31077;50.872;4.352;2023-03-31T09:32:38;24.30;43.90
45343;DHT22;31077;50.872;4.352;2023-03-31T09:35:17;24.30;44.00
45343;DHT22;31077;50.872;4.352;2023-03-31T09:37:43;24.30;44.00
45343;DHT22;31077;50.872;4.352;2023-03-31T09:40:18;24.30;44.00
45343;DHT22;31077;50.872;4.352;2023-03-31T09:42:59;24.30;44.00
45343;DHT22;31077;50.872;4.352;2023-03-31T09:45:26;24.30;44.10
45343;DHT22;31077;50.872;4.352;2023-03-31T09:47:58;24.30;44.00
45343;DHT22;31077;50.872;4.352;2023-03-31T09:50:25;24.30;44.10
45343;DHT22;31077;50.872;4.352;2023-03-31T09:52:57;24.30;44.10
45343;DHT22;31077;50.872;4.352;2023-03-31T09:55:27;24.30;44.10
45343;DHT22;31077;50.872;4.352;2023-03-31T09:57:56;24.30;44.00
45343;DHT22;31077;50.872;4.352;2023-03-31T10:00:25;24.30;44.00
45343;DHT22;31077;50.872;4.352;2023-03-31T10:02:56;24.30;44.00
45343;DHT22;31077;50.872;4.352;2023-03-31T10:05:38;24.30;44.10
45343;DHT22;31077;50.872;4.352;2023-03-31T10:10:48;24.30;44.00
45343;DHT22;31077;50.872;4.352;2023-03-31T10:13:18;24.40;44.10
45343;DHT22;31077;50.872;4.352;2023-03-31T10:15:44;24.30;44.10
45343;DHT22;31077;50.872;4.352;2023-03-31T10:18:15;24.30;44.00
45343;DHT22;31077;50.872;4.352;2023-03-31T10:20:49;24.40;44.10
45343;DHT22;31077;50.872;4.352;2023-03-31T10:25:45;24.30;44.10
45343;DHT22;31077;50.872;4.352;2023-03-31T10:28:15;24.30;44.00
45343;DHT22;31077;50.872;4.352;2023-03-31T10:30:47;24.30;44.00
45343;DHT22;31077;50.872;4.352;2023-03-31T10:33:17;24.40;44.00
45343;DHT22;31077;50.872;4.352;2023-03-31T10:35:43;24.40;44.00
45343;DHT22;31077;50.872;4.352;2023-03-31T10:38:20;24.40;43.90
45343;DHT22;31077;50.872;4.352;2023-03-31T10:40:54;24.30;43.80
45343;DHT22;31077;50.872;4.352;2023-03-31T10:43:28;24.30;43.80
45343;DHT22;31077;50.872;4.352;2023-03-31T10:45:57;24.30;43.80
45343;DHT22;31077;50.872;4.352;2023-03-31T10:51:27;24.40;43.80
45343;DHT22;31077;50.872;4.352;2023-03-31T10:53:56;24.30;43.70
45343;DHT22;31077;50.872;4.352;2023-03-31T10:56:41;24.40;43.70
45343;DHT22;31077;50.872;4.352;2023-03-31T11:05:30;24.30;43.90
45343;DHT22;31077;50.872;4.352;2023-03-31T11:08:18;24.30;43.60
45343;DHT22;31077;50.872;4.352;2023-03-31T11:16:58;24.30;43.80
45343;DHT22;31077;50.872;4.352;2023-03-31T11:23:16;24.40;43.90
45343;DHT22;31077;50.872;4.352;2023-03-31T11:34:15;24.40;44.00
45343;DHT22;31077;50.872;4.352;2023-03-31T11:37:18;24.40;44.00
45343;DHT22;31077;50.872;4.352;2023-03-31T11:42:58;24.30;43.90
45343;DHT22;31077;50.872;4.352;2023-03-31T11:45:32;24.30;43.80
45343;DHT22;31077;50.872;4.352;2023-03-31T11:48:04;24.30;43.80
45343;DHT22;31077;50.872;4.352;2023-03-31T11:50:37;24.30;43.70
45343;DHT22;31077;50.872;4.352;2023-03-31T11:53:24;24.30;43.70
45343;DHT22;31077;50.872;4.352;2023-03-31T11:55:53;24.30;43.60
45343;DHT22;31077;50.872;4.352;2023-03-31T11:58:32;24.30;43.60
45343;DHT22;31077;50.872;4.352;2023-03-31T12:01:13;24.30;43.60
45343;DHT22;31077;50.872;4.352;2023-03-31T12:03:55;24.30;43.60
45343;DHT22;31077;50.872;4.352;2023-03-31T12:06:27;24.30;43.50
45343;DHT22;31077;50.872;4.352;2023-03-31T12:09:04;24.30;43.50
45343;DHT22;31077;50.872;4.352;2023-03-31T12:14:36;24.30;43.60
45343;DHT22;31077;50.872;4.352;2023-03-31T12:17:13;24.30;43.60
45343;DHT22;31077;50.872;4.352;2023-03-31T12:19:53;24.30;43.60
45343;DHT22;31077;50.872;4.352;2023-03-31T12:22:21;24.30;43.60
45343;DHT22;31077;50.872;4.352;2023-03-31T12:24:48;24.40;43.80
45343;DHT22;31077;50.872;4.352;2023-03-31T12:29:57;24.30;43.90
45343;DHT22;31077;50.872;4.352;2023-03-31T12:32:31;24.30;44.00
45343;DHT22;31077;50.872;4.352;2023-03-31T12:35:40;24.30;44.10
45343;DHT22;31077;50.872;4.352;2023-03-31T12:49:06;24.40;44.20
45343;DHT22;31077;50.872;4.352;2023-03-31T12:55:43;24.40;44.00
45343;DHT22;31077;50.872;4.352;2023-03-31T12:57:36;24.30;43.90
45343;DHT22;31077;50.872;4.352;2023-03-31T13:02:37;24.30;43.70
45343;DHT22;31077;50.872;4.352;2023-03-31T13:08:06;24.30;43.90
45343;DHT22;31077;50.872;4.352;2023-03-31T13:10:57;24.30;43.60
45343;DHT22;31077;50.872;4.352;2023-03-31T13:13:24;24.30;43.60
45343;DHT22;31077;50.872;4.352;2023-03-31T13:15:53;24.30;43.50
45343;DHT22;31077;50.872;4.352;2023-03-31T13:18:21;24.30;43.30
45343;DHT22;31077;50.872;4.352;2023-03-31T13:21:04;24.30;43.20
45343;DHT22;31077;50.872;4.352;2023-03-31T13:23:34;24.30;43.10
45343;DHT22;31077;50.872;4.352;2023-03-31T13:26:01;24.30;43.30
45343;DHT22;31077;50.872;4.352;2023-03-31T13:28:41;24.30;43.20
45343;DHT22;31077;50.872;4.352;2023-03-31T13:31:12;24.30;43.20
45343;DHT22;31077;50.872;4.352;2023-03-31T13:58:18;24.30;43.30
45343;DHT22;31077;50.872;4.352;2023-03-31T14:04:15;24.30;43.30
45343;DHT22;31077;50.872;4.352;2023-03-31T14:07:00;24.40;43.50
45343;DHT22;31077;50.872;4.352;2023-03-31T14:09:33;24.30;43.60
45343;DHT22;31077;50.872;4.352;2023-03-31T14:12:00;24.30;43.60
45343;DHT22;31077;50.872;4.352;2023-03-31T14:14:27;24.40;43.70
45343;DHT22;31077;50.872;4.352;2023-03-31T14:17:03;24.30;43.80
45343;DHT22;31077;50.872;4.352;2023-03-31T14:24:39;24.30;43.80
45343;DHT22;31077;50.872;4.352;2023-03-31T14:38:47;24.40;43.90
45343;DHT22;31077;50.872;4.352;2023-03-31T14:41:18;24.30;43.80
45343;DHT22;31077;50.872;4.352;2023-03-31T14:43:48;24.40;43.80
45343;DHT22;31077;50.872;4.352;2023-03-31T14:46:19;24.40;43.80
45343;DHT22;31077;50.872;4.352;2023-03-31T14:48:49;24.40;43.80
45343;DHT22;31077;50.872;4.352;2023-03-31T14:51:18;24.30;43.90
45343;DHT22;31077;50.872;4.352;2023-03-31T14:53:44;24.40;43.80
45343;DHT22;31077;50.872;4.352;2023-03-31T14:56:21;24.40;43.80
45343;DHT22;31077;50.872;4.352;2023-03-31T14:58:52;24.40;43.80
45343;DHT22;31077;50.872;4.352;2023-03-31T15:01:24;24.40;43.80
45343;DHT22;31077;50.872;4.352;2023-03-31T15:03:52;24.40;43.80
45343;DHT22;31077;50.872;4.352;2023-03-31T15:06:18;24.40;43.80
45343;DHT22;31077;50.872;4.352;2023-03-31T15:08:44;24.40;43.80
45343;DHT22;31077;50.872;4.352;2023-03-31T15:11:17;24.40;43.70
45343;DHT22;31077;50.872;4.352;2023-03-31T15:13:51;24.40;43.80
45343;DHT22;31077;50.872;4.352;2023-03-31T15:18:53;24.40;43.80
45343;DHT22;31077;50.872;4.352;2023-03-31T15:21:24;24.40;43.70
45343;DHT22;31077;50.872;4.352;2023-03-31T15:23:54;24.40;43.70
45343;DHT22;31077;50.872;4.352;2023-03-31T15:26:25;24.40;43.70
45343;DHT22;31077;50.872;4.352;2023-03-31T15:28:56;24.40;43.70
45343;DHT22;31077;50.872;4.352;2023-03-31T15:31:23;24.40;43.70
45343;DHT22;31077;50.872;4.352;2023-03-31T15:33:52;24.40;43.70
45343;DHT22;31077;50.872;4.352;2023-03-31T15:36:19;24.40;43.70
45343;DHT22;31077;50.872;4.352;2023-03-31T15:38:46;24.40;43.70
45343;DHT22;31077;50.872;4.352;2023-03-31T15:41:20;24.40;43.70
45343;DHT22;31077;50.872;4.352;2023-03-31T15:43:49;24.40;43.70
45343;DHT22;31077;50.872;4.352;2023-03-31T15:49:28;24.40;43.70
45343;DHT22;31077;50.872;4.352;2023-03-31T15:51:54;24.40;43.70
45343;DHT22;31077;50.872;4.352;2023-03-31T15:54:39;24.40;43.80
45343;DHT22;31077;50.872;4.352;2023-03-31T15:57:07;24.40;43.70
45343;DHT22;31077;50.872;4.352;2023-03-31T15:59:50;24.40;43.80
45343;DHT22;31077;50.872;4.352;2023-03-31T16:02:23;24.40;43.70
45343;DHT22;31077;50.872;4.352;2023-03-31T16:04:53;24.40;43.70
45343;DHT22;31077;50.872;4.352;2023-03-31T16:07:39;24.40;43.70
45343;DHT22;31077;50.872;4.352;2023-03-31T16:10:25;24.40;43.70
45343;DHT22;31077;50.872;4.352;2023-03-31T16:13:03;24.40;44.30
45343;DHT22;31077;50.872;4.352;2023-03-31T16:15:36;24.40;43.70
45343;DHT22;31077;50.872;4.352;2023-03-31T16:18:12;24.40;43.80
45343;DHT22;31077;50.872;4.352;2023-03-31T16:20:42;24.30;43.70
45343;DHT22;31077;50.872;4.352;2023-03-31T16:23:20;24.40;43.80
45343;DHT22;31077;50.872;4.352;2023-03-31T16:25:48;24.40;43.80
45343;DHT22;31077;50.872;4.352;2023-03-31T16:28:16;24.40;43.80
45343;DHT22;31077;50.872;4.352;2023-03-31T16:30:45;24.40;43.90
45343;DHT22;31077;50.872;4.352;2023-03-31T16:33:13;24.40;43.90
45343;DHT22;31077;50.872;4.352;2023-03-31T16:35:43;24.40;44.00
45343;DHT22;31077;50.872;4.352;2023-03-31T16:38:11;24.40;44.10
45343;DHT22;31077;50.872;4.352;2023-03-31T16:40:39;24.40;44.20
45343;DHT22;31077;50.872;4.352;2023-03-31T16:45:40;24.40;44.30
45343;DHT22;31077;50.872;4.352;2023-03-31T16:48:06;24.40;44.20
45343;DHT22;31077;50.872;4.352;2023-03-31T16:50:32;24.40;44.20
45343;DHT22;31077;50.872;4.352;2023-03-31T16:52:59;24.40;44.30
45343;DHT22;31077;50.872;4.352;2023-03-31T16:55:29;24.40;44.30
45343;DHT22;31077;50.872;4.352;2023-03-31T16:57:57;24.40;44.40
45343;DHT22;31077;50.872;4.352;2023-03-31T17:00:24;24.30;44.40
45343;DHT22;31077;50.872;4.352;2023-03-31T17:02:50;24.40;44.50
45343;DHT22;31077;50.872;4.352;2023-03-31T17:05:16;24.40;44.50
45343;DHT22;31077;50.872;4.352;2023-03-31T17:07:42;24.40;44.40
45343;DHT22;31077;50.872;4.352;2023-03-31T17:10:10;24.40;44.40
45343;DHT22;31077;50.872;4.352;2023-03-31T17:12:37;24.40;44.30
45343;DHT22;31077;50.872;4.352;2023-03-31T17:15:03;24.40;44.30
45343;DHT22;31077;50.872;4.352;2023-03-31T17:17:29;24.40;44.20
45343;DHT22;31077;50.872;4.352;2023-03-31T17:19:55;24.40;44.20
45343;DHT22;31077;50.872;4.352;2023-03-31T17:22:21;24.40;44.20
45343;DHT22;31077;50.872;4.352;2023-03-31T17:24:47;24.40;44.20
45343;DHT22;31077;50.872;4.352;2023-03-31T17:27:17;24.40;44.20
45343;DHT22;31077;50.872;4.352;2023-03-31T17:29:43;24.40;44.20
45343;DHT22;31077;50.872;4.352;2023-03-31T17:32:09;24.40;44.20
45343;DHT22;31077;50.872;4.352;2023-03-31T17:34:37;24.40;44.20
45343;DHT22;31077;50.872;4.352;2023-03-31T17:37:02;24.40;44.20
45343;DHT22;31077;50.872;4.352;2023-03-31T17:39:28;24.40;44.20
45343;DHT22;31077;50.872;4.352;2023-03-31T17:41:54;24.40;44.20
45343;DHT22;31077;50.872;4.352;2023-03-31T17:44:21;24.40;44.20
45343;DHT22;31077;50.872;4.352;2023-03-31T17:46:47;24.40;44.30
45343;DHT22;31077;50.872;4.352;2023-03-31T17:49:13;24.40;44.40
45343;DHT22;31077;50.872;4.352;2023-03-31T17:51:40;24.40;44.40
45343;DHT22;31077;50.872;4.352;2023-03-31T17:54:05;24.30;44.60
45343;DHT22;31077;50.872;4.352;2023-03-31T17:56:31;24.40;44.60
45343;DHT22;31077;50.872;4.352;2023-03-31T17:58:58;24.30;44.60
45343;DHT22;31077;50.872;4.352;2023-03-31T18:01:23;24.30;44.70
45343;DHT22;31077;50.872;4.352;2023-03-31T18:03:49;24.30;44.60
45343;DHT22;31077;50.872;4.352;2023-03-31T18:06:15;24.30;44.60
45343;DHT22;31077;50.872;4.352;2023-03-31T18:08:42;24.30;44.60
45343;DHT22;31077;50.872;4.352;2023-03-31T18:11:10;24.30;44.60
45343;DHT22;31077;50.872;4.352;2023-03-31T18:13:36;24.30;44.60
45343;DHT22;31077;50.872;4.352;2023-03-31T18:16:04;24.30;44.60
45343;DHT22;31077;50.872;4.352;2023-03-31T18:18:30;24.30;44.60
